sensor_id;sensor_type;location;lat;lon;timestamp;P1;durP1;ratioP1;P2;durP2;ratioP2
67839;SDS011;54636;51.684;5.142;2023-04-03T00:01:19;5.75;;;2.22;;
67839;SDS011;54636;51.684;5.142;2023-04-03T00:03:45;3.45;;;2.22;;
67839;SDS011;54636;51.684;5.142;2023-04-03T00:06:11;5.38;;;2.30;;
67839;SDS011;54636;51.684;5.142;2023-04-03T00:08:37;2.47;;;2.28;;
67839;SDS011;54636;51.684;5.142;2023-04-03T00:11:04;2.58;;;2.25;;
67839;SDS011;54636;51.684;5.142;2023-04-03T00:13:30;2.65;;;2.20;;
67839;SDS011;54636;51.684;5.142;2023-04-03T00:15:56;2.60;;;2.40;;
67839;SDS011;54636;51.684;5.142;2023-04-03T00:18:21;5.47;;;2.58;;
67839;SDS011;54636;51.684;5.142;2023-04-03T00:20:47;2.20;;;1.95;;
67839;SDS011;54636;51.684;5.142;2023-04-03T00:23:12;3.90;;;2.00;;
67839;SDS011;54636;51.684;5.142;2023-04-03T00:25:38;4.55;;;2.60;;
67839;SDS011;54636;51.684;5.142;2023-04-03T00:28:04;5.32;;;2.40;;
67839;SDS011;54636;51.684;5.142;2023-04-03T00:30:30;11.80;;;2.45;;
67839;SDS011;54636;51.684;5.142;2023-04-03T00:32:56;2.53;;;2.08;;
67839;SDS011;54636;51.684;5.142;2023-04-03T00:35:22;2.70;;;2.25;;
67839;SDS011;54636;51.684;5.142;2023-04-03T00:37:50;3.00;;;2.05;;
67839;SDS011;54636;51.684;5.142;2023-04-03T00:40:17;4.43;;;2.22;;
67839;SDS011;54636;51.684;5.142;2023-04-03T00:42:44;2.28;;;2.08;;
67839;SDS011;54636;51.684;5.142;2023-04-03T00:47:42;2.38;;;2.17;;
67839;SDS011;54636;51.684;5.142;2023-04-03T00:50:08;4.10;;;2.20;;
67839;SDS011;54636;51.684;5.142;2023-04-03T00:52:34;7.10;;;2.15;;
67839;SDS011;54636;51.684;5.142;2023-04-03T00:55:02;2.00;;;1.90;;
67839;SDS011;54636;51.684;5.142;2023-04-03T00:57:30;2.92;;;1.98;;
67839;SDS011;54636;51.684;5.142;2023-04-03T00:59:59;6.13;;;2.25;;
67839;SDS011;54636;51.684;5.142;2023-04-03T01:02:29;2.90;;;1.85;;
67839;SDS011;54636;51.684;5.142;2023-04-03T01:04:55;1.70;;;1.60;;
67839;SDS011;54636;51.684;5.142;2023-04-03T01:07:25;2.08;;;1.88;;
67839;SDS011;54636;51.684;5.142;2023-04-03T01:09:53;3.03;;;2.00;;
67839;SDS011;54636;51.684;5.142;2023-04-03T01:12:24;5.97;;;2.20;;
67839;SDS011;54636;51.684;5.142;2023-04-03T01:14:53;4.20;;;1.80;;
67839;SDS011;54636;51.684;5.142;2023-04-03T01:17:43;2.42;;;2.00;;
67839;SDS011;54636;51.684;5.142;2023-04-03T01:25:27;3.75;;;2.13;;
67839;SDS011;54636;51.684;5.142;2023-04-03T01:27:53;3.28;;;1.90;;
67839;SDS011;54636;51.684;5.142;2023-04-03T01:30:19;2.33;;;1.80;;
67839;SDS011;54636;51.684;5.142;2023-04-03T01:32:46;2.38;;;2.17;;
67839;SDS011;54636;51.684;5.142;2023-04-03T01:35:11;5.35;;;2.53;;
67839;SDS011;54636;51.684;5.142;2023-04-03T01:37:37;4.57;;;2.15;;
67839;SDS011;54636;51.684;5.142;2023-04-03T01:40:03;6.88;;;2.17;;
67839;SDS011;54636;51.684;5.142;2023-04-03T01:42:29;1.90;;;1.80;;
67839;SDS011;54636;51.684;5.142;2023-04-03T01:44:55;3.00;;;1.98;;
67839;SDS011;54636;51.684;5.142;2023-04-03T01:47:21;2.30;;;2.05;;
67839;SDS011;54636;51.684;5.142;2023-04-03T01:49:46;2.20;;;2.00;;
67839;SDS011;54636;51.684;5.142;2023-04-03T01:52:12;2.45;;;2.25;;
67839;SDS011;54636;51.684;5.142;2023-04-03T01:54:37;3.40;;;1.83;;
67839;SDS011;54636;51.684;5.142;2023-04-03T01:57:03;3.45;;;2.03;;
67839;SDS011;54636;51.684;5.142;2023-04-03T01:59:28;1.60;;;1.50;;
67839;SDS011;54636;51.684;5.142;2023-04-03T02:01:54;3.15;;;1.75;;
67839;SDS011;54636;51.684;5.142;2023-04-03T02:04:19;2.17;;;1.90;;
67839;SDS011;54636;51.684;5.142;2023-04-03T02:06:44;2.30;;;2.08;;
67839;SDS011;54636;51.684;5.142;2023-04-03T02:09:10;2.88;;;2.15;;
67839;SDS011;54636;51.684;5.142;2023-04-03T02:11:35;3.63;;;2.13;;
67839;SDS011;54636;51.684;5.142;2023-04-03T02:14:01;2.95;;;2.20;;
67839;SDS011;54636;51.684;5.142;2023-04-03T02:16:26;2.17;;;1.95;;
67839;SDS011;54636;51.684;5.142;2023-04-03T02:18:53;4.72;;;2.40;;
67839;SDS011;54636;51.684;5.142;2023-04-03T02:21:19;4.47;;;2.10;;
67839;SDS011;54636;51.684;5.142;2023-04-03T02:23:44;4.57;;;2.20;;
67839;SDS011;54636;51.684;5.142;2023-04-03T02:26:10;4.03;;;2.08;;
67839;SDS011;54636;51.684;5.142;2023-04-03T02:28:37;4.07;;;2.63;;
67839;SDS011;54636;51.684;5.142;2023-04-03T02:31:03;4.57;;;1.83;;
67839;SDS011;54636;51.684;5.142;2023-04-03T02:33:31;5.15;;;2.60;;
67839;SDS011;54636;51.684;5.142;2023-04-03T02:35:57;1.85;;;1.70;;
67839;SDS011;54636;51.684;5.142;2023-04-03T02:38:23;3.60;;;2.30;;
67839;SDS011;54636;51.684;5.142;2023-04-03T02:40:50;3.67;;;2.15;;
67839;SDS011;54636;51.684;5.142;2023-04-03T02:43:16;3.33;;;2.30;;
67839;SDS011;54636;51.684;5.142;2023-04-03T02:45:42;2.40;;;2.20;;
67839;SDS011;54636;51.684;5.142;2023-04-03T02:48:07;3.40;;;1.98;;
67839;SDS011;54636;51.684;5.142;2023-04-03T02:50:33;2.55;;;2.10;;
67839;SDS011;54636;51.684;5.142;2023-04-03T02:52:58;3.67;;;2.20;;
67839;SDS011;54636;51.684;5.142;2023-04-03T02:55:23;4.00;;;2.03;;
67839;SDS011;54636;51.684;5.142;2023-04-03T02:57:49;2.55;;;1.88;;
67839;SDS011;54636;51.684;5.142;2023-04-03T03:00:15;2.28;;;2.08;;
67839;SDS011;54636;51.684;5.142;2023-04-03T03:02:40;3.63;;;2.15;;
67839;SDS011;54636;51.684;5.142;2023-04-03T03:05:06;10.35;;;2.25;;
67839;SDS011;54636;51.684;5.142;2023-04-03T03:07:32;2.67;;;2.03;;
67839;SDS011;54636;51.684;5.142;2023-04-03T03:09:57;3.13;;;2.10;;
67839;SDS011;54636;51.684;5.142;2023-04-03T03:12:23;3.65;;;2.00;;
67839;SDS011;54636;51.684;5.142;2023-04-03T03:14:49;4.60;;;2.08;;
67839;SDS011;54636;51.684;5.142;2023-04-03T03:17:15;2.22;;;1.98;;
67839;SDS011;54636;51.684;5.142;2023-04-03T03:19:41;1.98;;;1.85;;
67839;SDS011;54636;51.684;5.142;2023-04-03T03:22:06;2.65;;;2.13;;
67839;SDS011;54636;51.684;5.142;2023-04-03T03:24:32;3.33;;;2.10;;
67839;SDS011;54636;51.684;5.142;2023-04-03T03:26:57;6.80;;;2.00;;
67839;SDS011;54636;51.684;5.142;2023-04-03T03:29:22;4.80;;;2.15;;
67839;SDS011;54636;51.684;5.142;2023-04-03T03:31:48;2.90;;;2.00;;
67839;SDS011;54636;51.684;5.142;2023-04-03T03:34:13;2.72;;;2.17;;
67839;SDS011;54636;51.684;5.142;2023-04-03T03:36:39;2.70;;;2.13;;
67839;SDS011;54636;51.684;5.142;2023-04-03T03:39:05;9.13;;;2.40;;
67839;SDS011;54636;51.684;5.142;2023-04-03T03:41:31;5.15;;;2.05;;
67839;SDS011;54636;51.684;5.142;2023-04-03T03:43:56;2.65;;;1.98;;
67839;SDS011;54636;51.684;5.142;2023-04-03T03:46:22;4.47;;;2.15;;
67839;SDS011;54636;51.684;5.142;2023-04-03T03:48:47;2.38;;;1.95;;
67839;SDS011;54636;51.684;5.142;2023-04-03T03:51:13;3.05;;;1.80;;
67839;SDS011;54636;51.684;5.142;2023-04-03T03:53:38;2.47;;;2.22;;
67839;SDS011;54636;51.684;5.142;2023-04-03T03:56:04;3.65;;;2.10;;
67839;SDS011;54636;51.684;5.142;2023-04-03T03:58:30;3.95;;;2.20;;
67839;SDS011;54636;51.684;5.142;2023-04-03T04:00:57;8.15;;;2.20;;
67839;SDS011;54636;51.684;5.142;2023-04-03T04:03:25;6.05;;;3.28;;
67839;SDS011;54636;51.684;5.142;2023-04-03T04:05:51;2.80;;;1.80;;
67839;SDS011;54636;51.684;5.142;2023-04-03T04:08:16;5.63;;;1.80;;
67839;SDS011;54636;51.684;5.142;2023-04-03T04:10:42;3.67;;;2.80;;
67839;SDS011;54636;51.684;5.142;2023-04-03T04:13:07;3.00;;;1.92;;
67839;SDS011;54636;51.684;5.142;2023-04-03T04:15:33;3.50;;;1.77;;
67839;SDS011;54636;51.684;5.142;2023-04-03T04:17:58;4.78;;;2.05;;
67839;SDS011;54636;51.684;5.142;2023-04-03T04:20:24;3.33;;;2.15;;
67839;SDS011;54636;51.684;5.142;2023-04-03T04:22:49;8.30;;;2.28;;
67839;SDS011;54636;51.684;5.142;2023-04-03T04:25:15;3.67;;;2.15;;
67839;SDS011;54636;51.684;5.142;2023-04-03T04:27:40;3.63;;;1.90;;
67839;SDS011;54636;51.684;5.142;2023-04-03T04:30:06;4.65;;;2.15;;
67839;SDS011;54636;51.684;5.142;2023-04-03T04:32:32;4.75;;;2.45;;
67839;SDS011;54636;51.684;5.142;2023-04-03T04:34:57;6.95;;;2.40;;
67839;SDS011;54636;51.684;5.142;2023-04-03T04:37:22;9.38;;;2.20;;
67839;SDS011;54636;51.684;5.142;2023-04-03T04:39:48;5.47;;;2.33;;
67839;SDS011;54636;51.684;5.142;2023-04-03T04:42:13;5.50;;;2.38;;
67839;SDS011;54636;51.684;5.142;2023-04-03T04:44:39;5.05;;;2.42;;
67839;SDS011;54636;51.684;5.142;2023-04-03T04:47:05;3.53;;;2.03;;
67839;SDS011;54636;51.684;5.142;2023-04-03T04:49:30;5.35;;;2.30;;
67839;SDS011;54636;51.684;5.142;2023-04-03T04:51:55;2.50;;;2.17;;
67839;SDS011;54636;51.684;5.142;2023-04-03T04:54:21;2.30;;;2.15;;
67839;SDS011;54636;51.684;5.142;2023-04-03T04:56:46;5.90;;;2.70;;
67839;SDS011;54636;51.684;5.142;2023-04-03T04:59:12;2.90;;;2.25;;
67839;SDS011;54636;51.684;5.142;2023-04-03T05:01:37;6.10;;;2.80;;
67839;SDS011;54636;51.684;5.142;2023-04-03T05:04:02;5.00;;;2.97;;
67839;SDS011;54636;51.684;5.142;2023-04-03T05:06:28;4.32;;;2.25;;
67839;SDS011;54636;51.684;5.142;2023-04-03T05:08:55;3.15;;;2.25;;
67839;SDS011;54636;51.684;5.142;2023-04-03T05:11:21;2.72;;;2.33;;
67839;SDS011;54636;51.684;5.142;2023-04-03T05:13:46;4.30;;;2.38;;
67839;SDS011;54636;51.684;5.142;2023-04-03T05:16:12;7.97;;;2.63;;
67839;SDS011;54636;51.684;5.142;2023-04-03T05:18:38;8.27;;;3.00;;
67839;SDS011;54636;51.684;5.142;2023-04-03T05:21:03;5.20;;;2.22;;
67839;SDS011;54636;51.684;5.142;2023-04-03T05:23:29;3.75;;;2.50;;
67839;SDS011;54636;51.684;5.142;2023-04-03T05:25:55;5.10;;;2.42;;
67839;SDS011;54636;51.684;5.142;2023-04-03T05:28:20;7.32;;;2.50;;
67839;SDS011;54636;51.684;5.142;2023-04-03T05:30:52;8.10;;;2.28;;
67839;SDS011;54636;51.684;5.142;2023-04-03T05:33:21;4.45;;;2.88;;
67839;SDS011;54636;51.684;5.142;2023-04-03T05:35:47;4.38;;;2.63;;
67839;SDS011;54636;51.684;5.142;2023-04-03T05:38:12;4.43;;;2.53;;
67839;SDS011;54636;51.684;5.142;2023-04-03T05:40:38;4.95;;;2.60;;
67839;SDS011;54636;51.684;5.142;2023-04-03T05:43:03;6.10;;;2.42;;
67839;SDS011;54636;51.684;5.142;2023-04-03T05:45:29;4.78;;;2.33;;
67839;SDS011;54636;51.684;5.142;2023-04-03T05:47:54;7.25;;;2.20;;
67839;SDS011;54636;51.684;5.142;2023-04-03T05:50:20;3.58;;;2.25;;
67839;SDS011;54636;51.684;5.142;2023-04-03T05:52:46;2.80;;;1.95;;
67839;SDS011;54636;51.684;5.142;2023-04-03T05:55:14;3.10;;;2.03;;
67839;SDS011;54636;51.684;5.142;2023-04-03T05:57:40;3.58;;;1.80;;
67839;SDS011;54636;51.684;5.142;2023-04-03T06:00:07;3.88;;;2.05;;
67839;SDS011;54636;51.684;5.142;2023-04-03T06:02:34;2.00;;;1.88;;
67839;SDS011;54636;51.684;5.142;2023-04-03T06:05:00;4.28;;;1.98;;
67839;SDS011;54636;51.684;5.142;2023-04-03T06:07:27;4.85;;;2.03;;
67839;SDS011;54636;51.684;5.142;2023-04-03T06:09:53;6.63;;;2.85;;
67839;SDS011;54636;51.684;5.142;2023-04-03T06:12:20;3.38;;;2.20;;
67839;SDS011;54636;51.684;5.142;2023-04-03T06:14:46;3.45;;;2.38;;
67839;SDS011;54636;51.684;5.142;2023-04-03T06:17:12;3.85;;;1.52;;
67839;SDS011;54636;51.684;5.142;2023-04-03T06:19:43;3.42;;;1.55;;
67839;SDS011;54636;51.684;5.142;2023-04-03T06:22:09;2.47;;;1.58;;
67839;SDS011;54636;51.684;5.142;2023-04-03T06:24:34;3.45;;;1.70;;
67839;SDS011;54636;51.684;5.142;2023-04-03T06:27:00;5.72;;;1.73;;
67839;SDS011;54636;51.684;5.142;2023-04-03T06:29:26;3.35;;;1.88;;
67839;SDS011;54636;51.684;5.142;2023-04-03T06:31:51;5.38;;;1.92;;
67839;SDS011;54636;51.684;5.142;2023-04-03T06:34:17;6.22;;;2.20;;
67839;SDS011;54636;51.684;5.142;2023-04-03T06:36:43;4.03;;;1.42;;
67839;SDS011;54636;51.684;5.142;2023-04-03T06:39:16;3.28;;;1.73;;
67839;SDS011;54636;51.684;5.142;2023-04-03T06:41:45;6.53;;;2.70;;
67839;SDS011;54636;51.684;5.142;2023-04-03T06:44:11;4.20;;;1.52;;
67839;SDS011;54636;51.684;5.142;2023-04-03T06:46:39;3.92;;;1.70;;
67839;SDS011;54636;51.684;5.142;2023-04-03T06:49:04;5.55;;;1.42;;
67839;SDS011;54636;51.684;5.142;2023-04-03T06:51:33;2.70;;;2.05;;
67839;SDS011;54636;51.684;5.142;2023-04-03T06:53:59;4.10;;;1.58;;
67839;SDS011;54636;51.684;5.142;2023-04-03T06:56:25;5.00;;;2.22;;
67839;SDS011;54636;51.684;5.142;2023-04-03T06:58:51;7.75;;;1.70;;
67839;SDS011;54636;51.684;5.142;2023-04-03T07:01:19;2.15;;;1.40;;
67839;SDS011;54636;51.684;5.142;2023-04-03T07:03:46;3.72;;;2.83;;
67839;SDS011;54636;51.684;5.142;2023-04-03T07:06:13;4.45;;;1.90;;
67839;SDS011;54636;51.684;5.142;2023-04-03T07:08:39;4.22;;;1.67;;
67839;SDS011;54636;51.684;5.142;2023-04-03T07:11:05;2.83;;;1.92;;
67839;SDS011;54636;51.684;5.142;2023-04-03T07:13:31;3.00;;;1.65;;
67839;SDS011;54636;51.684;5.142;2023-04-03T07:15:57;4.63;;;1.80;;
67839;SDS011;54636;51.684;5.142;2023-04-03T07:18:23;1.27;;;1.17;;
67839;SDS011;54636;51.684;5.142;2023-04-03T07:20:48;5.63;;;2.65;;
67839;SDS011;54636;51.684;5.142;2023-04-03T07:23:14;4.22;;;2.25;;
67839;SDS011;54636;51.684;5.142;2023-04-03T07:25:43;6.00;;;1.67;;
67839;SDS011;54636;51.684;5.142;2023-04-03T07:28:10;8.13;;;1.88;;
67839;SDS011;54636;51.684;5.142;2023-04-03T07:30:42;3.67;;;2.10;;
67839;SDS011;54636;51.684;5.142;2023-04-03T07:33:08;6.53;;;1.45;;
67839;SDS011;54636;51.684;5.142;2023-04-03T07:35:34;2.97;;;1.40;;
67839;SDS011;54636;51.684;5.142;2023-04-03T07:37:59;5.00;;;1.48;;
67839;SDS011;54636;51.684;5.142;2023-04-03T07:40:25;1.63;;;1.52;;
67839;SDS011;54636;51.684;5.142;2023-04-03T07:42:50;5.47;;;2.33;;
67839;SDS011;54636;51.684;5.142;2023-04-03T07:45:16;5.70;;;2.10;;
67839;SDS011;54636;51.684;5.142;2023-04-03T07:47:42;2.42;;;1.70;;
67839;SDS011;54636;51.684;5.142;2023-04-03T07:50:07;7.47;;;1.92;;
67839;SDS011;54636;51.684;5.142;2023-04-03T07:52:33;2.92;;;1.70;;
67839;SDS011;54636;51.684;5.142;2023-04-03T07:54:59;3.30;;;1.90;;
67839;SDS011;54636;51.684;5.142;2023-04-03T07:57:24;4.03;;;1.25;;
67839;SDS011;54636;51.684;5.142;2023-04-03T07:59:50;3.17;;;1.30;;
67839;SDS011;54636;51.684;5.142;2023-04-03T08:02:15;7.57;;;2.25;;
67839;SDS011;54636;51.684;5.142;2023-04-03T08:04:40;4.68;;;1.58;;
67839;SDS011;54636;51.684;5.142;2023-04-03T08:07:06;4.50;;;1.85;;
67839;SDS011;54636;51.684;5.142;2023-04-03T08:09:31;3.55;;;1.58;;
67839;SDS011;54636;51.684;5.142;2023-04-03T08:11:57;5.20;;;1.60;;
67839;SDS011;54636;51.684;5.142;2023-04-03T08:14:23;4.70;;;1.95;;
67839;SDS011;54636;51.684;5.142;2023-04-03T08:16:49;1.17;;;1.00;;
67839;SDS011;54636;51.684;5.142;2023-04-03T08:19:15;3.72;;;1.58;;
67839;SDS011;54636;51.684;5.142;2023-04-03T08:21:42;5.13;;;1.58;;
67839;SDS011;54636;51.684;5.142;2023-04-03T08:24:08;5.15;;;1.50;;
67839;SDS011;54636;51.684;5.142;2023-04-03T08:26:34;5.15;;;1.35;;
67839;SDS011;54636;51.684;5.142;2023-04-03T08:28:59;2.72;;;1.48;;
67839;SDS011;54636;51.684;5.142;2023-04-03T08:31:25;2.05;;;1.13;;
67839;SDS011;54636;51.684;5.142;2023-04-03T08:33:51;4.47;;;1.35;;
67839;SDS011;54636;51.684;5.142;2023-04-03T08:36:18;2.83;;;1.30;;
67839;SDS011;54636;51.684;5.142;2023-04-03T08:38:48;3.47;;;1.20;;
67839;SDS011;54636;51.684;5.142;2023-04-03T08:41:16;2.97;;;1.50;;
67839;SDS011;54636;51.684;5.142;2023-04-03T08:44:01;4.65;;;1.30;;
67839;SDS011;54636;51.684;5.142;2023-04-03T08:46:47;2.38;;;1.17;;
67839;SDS011;54636;51.684;5.142;2023-04-03T08:49:33;2.97;;;1.55;;
67839;SDS011;54636;51.684;5.142;2023-04-03T08:52:01;1.25;;;1.08;;
67839;SDS011;54636;51.684;5.142;2023-04-03T08:54:33;3.45;;;1.30;;
67839;SDS011;54636;51.684;5.142;2023-04-03T08:57:00;0.70;;;0.70;;
67839;SDS011;54636;51.684;5.142;2023-04-03T08:59:31;1.67;;;0.93;;
67839;SDS011;54636;51.684;5.142;2023-04-03T09:01:59;2.08;;;1.08;;
67839;SDS011;54636;51.684;5.142;2023-04-03T09:04:30;1.05;;;0.60;;
67839;SDS011;54636;51.684;5.142;2023-04-03T09:06:59;2.80;;;1.45;;
67839;SDS011;54636;51.684;5.142;2023-04-03T09:09:35;1.10;;;0.77;;
67839;SDS011;54636;51.684;5.142;2023-04-03T09:12:21;0.82;;;0.77;;
67839;SDS011;54636;51.684;5.142;2023-04-03T09:17:36;3.10;;;1.08;;
67839;SDS011;54636;51.684;5.142;2023-04-03T09:22:36;0.57;;;0.57;;
67839;SDS011;54636;51.684;5.142;2023-04-03T09:25:17;0.75;;;0.63;;
67839;SDS011;54636;51.684;5.142;2023-04-03T09:27:48;1.15;;;0.82;;
67839;SDS011;54636;51.684;5.142;2023-04-03T09:30:14;1.75;;;0.73;;
67839;SDS011;54636;51.684;5.142;2023-04-03T09:32:41;1.05;;;0.80;;
67839;SDS011;54636;51.684;5.142;2023-04-03T09:35:28;2.70;;;0.70;;
67839;SDS011;54636;51.684;5.142;2023-04-03T09:38:14;2.25;;;0.82;;
67839;SDS011;54636;51.684;5.142;2023-04-03T09:40:45;0.85;;;0.43;;
67839;SDS011;54636;51.684;5.142;2023-04-03T09:43:23;0.40;;;0.40;;
67839;SDS011;54636;51.684;5.142;2023-04-03T09:46:15;0.80;;;0.60;;
67839;SDS011;54636;51.684;5.142;2023-04-03T09:49:01;0.50;;;0.45;;
67839;SDS011;54636;51.684;5.142;2023-04-03T09:51:29;1.20;;;0.65;;
67839;SDS011;54636;51.684;5.142;2023-04-03T09:53:56;0.40;;;0.40;;
67839;SDS011;54636;51.684;5.142;2023-04-03T10:04:03;0.55;;;0.40;;
67839;SDS011;54636;51.684;5.142;2023-04-03T10:06:34;4.60;;;0.90;;
67839;SDS011;54636;51.684;5.142;2023-04-03T10:09:04;0.85;;;0.63;;
67839;SDS011;54636;51.684;5.142;2023-04-03T10:15:10;0.95;;;0.60;;
67839;SDS011;54636;51.684;5.142;2023-04-03T10:17:30;0.85;;;0.60;;
67839;SDS011;54636;51.684;5.142;2023-04-03T10:23:00;0.63;;;0.63;;
67839;SDS011;54636;51.684;5.142;2023-04-03T10:25:41;0.57;;;0.50;;
67839;SDS011;54636;51.684;5.142;2023-04-03T10:28:32;2.83;;;0.60;;
67839;SDS011;54636;51.684;5.142;2023-04-03T10:31:21;1.75;;;0.52;;
67839;SDS011;54636;51.684;5.142;2023-04-03T10:33:56;2.08;;;0.90;;
67839;SDS011;54636;51.684;5.142;2023-04-03T10:37:05;0.80;;;0.60;;
67839;SDS011;54636;51.684;5.142;2023-04-03T10:39:59;1.15;;;0.73;;
67839;SDS011;54636;51.684;5.142;2023-04-03T10:42:44;0.98;;;0.50;;
67839;SDS011;54636;51.684;5.142;2023-04-03T10:50:31;0.80;;;0.63;;
67839;SDS011;54636;51.684;5.142;2023-04-03T10:58:38;0.40;;;0.40;;
67839;SDS011;54636;51.684;5.142;2023-04-03T11:01:07;0.28;;;0.28;;
67839;SDS011;54636;51.684;5.142;2023-04-03T11:03:42;1.38;;;0.70;;
67839;SDS011;54636;51.684;5.142;2023-04-03T11:06:13;0.80;;;0.60;;
67839;SDS011;54636;51.684;5.142;2023-04-03T11:11:16;0.88;;;0.70;;
67839;SDS011;54636;51.684;5.142;2023-04-03T11:13:51;0.75;;;0.47;;
67839;SDS011;54636;51.684;5.142;2023-04-03T11:16:27;2.42;;;0.32;;
67839;SDS011;54636;51.684;5.142;2023-04-03T11:18:56;0.93;;;0.55;;
67839;SDS011;54636;51.684;5.142;2023-04-03T11:22:11;1.10;;;0.68;;
67839;SDS011;54636;51.684;5.142;2023-04-03T11:24:22;0.47;;;0.47;;
67839;SDS011;54636;51.684;5.142;2023-04-03T11:26:51;0.40;;;0.40;;
67839;SDS011;54636;51.684;5.142;2023-04-03T11:29:20;1.15;;;0.32;;
67839;SDS011;54636;51.684;5.142;2023-04-03T11:34:31;0.43;;;0.43;;
67839;SDS011;54636;51.684;5.142;2023-04-03T11:37:05;0.38;;;0.38;;
67839;SDS011;54636;51.684;5.142;2023-04-03T11:39:38;0.75;;;0.30;;
67839;SDS011;54636;51.684;5.142;2023-04-03T11:42:35;0.50;;;0.40;;
67839;SDS011;54636;51.684;5.142;2023-04-03T11:47:55;2.28;;;0.40;;
67839;SDS011;54636;51.684;5.142;2023-04-03T11:50:38;0.40;;;0.40;;
67839;SDS011;54636;51.684;5.142;2023-04-03T11:58:13;3.40;;;0.75;;
67839;SDS011;54636;51.684;5.142;2023-04-03T12:21:20;0.85;;;0.70;;
67839;SDS011;54636;51.684;5.142;2023-04-03T12:34:53;2.45;;;0.70;;
67839;SDS011;54636;51.684;5.142;2023-04-03T12:46:23;1.10;;;0.88;;
67839;SDS011;54636;51.684;5.142;2023-04-03T12:48:55;0.55;;;0.52;;
67839;SDS011;54636;51.684;5.142;2023-04-03T12:51:39;1.60;;;1.10;;
67839;SDS011;54636;51.684;5.142;2023-04-03T12:54:16;2.28;;;0.73;;
67839;SDS011;54636;51.684;5.142;2023-04-03T12:56:47;0.38;;;0.38;;
67839;SDS011;54636;51.684;5.142;2023-04-03T13:01:38;1.85;;;0.77;;
67839;SDS011;54636;51.684;5.142;2023-04-03T13:04:03;2.15;;;1.20;;
67839;SDS011;54636;51.684;5.142;2023-04-03T13:06:39;1.88;;;0.70;;
67839;SDS011;54636;51.684;5.142;2023-04-03T13:09:17;0.70;;;0.60;;
67839;SDS011;54636;51.684;5.142;2023-04-03T13:11:52;0.65;;;0.65;;
67839;SDS011;54636;51.684;5.142;2023-04-03T13:14:25;1.38;;;0.70;;
67839;SDS011;54636;51.684;5.142;2023-04-03T13:19:28;1.33;;;0.82;;
67839;SDS011;54636;51.684;5.142;2023-04-03T13:22:04;1.00;;;0.90;;
67839;SDS011;54636;51.684;5.142;2023-04-03T13:24:35;0.70;;;0.68;;
67839;SDS011;54636;51.684;5.142;2023-04-03T13:27:03;1.63;;;0.93;;
67839;SDS011;54636;51.684;5.142;2023-04-03T13:29:36;1.42;;;0.80;;
67839;SDS011;54636;51.684;5.142;2023-04-03T13:32:03;1.27;;;0.80;;
67839;SDS011;54636;51.684;5.142;2023-04-03T13:34:38;0.93;;;0.93;;
67839;SDS011;54636;51.684;5.142;2023-04-03T13:37:07;1.02;;;1.00;;
67839;SDS011;54636;51.684;5.142;2023-04-03T13:39:37;1.10;;;0.77;;
67839;SDS011;54636;51.684;5.142;2023-04-03T13:42:20;0.57;;;0.55;;
67839;SDS011;54636;51.684;5.142;2023-04-03T13:44:49;2.53;;;0.90;;
67839;SDS011;54636;51.684;5.142;2023-04-03T13:47:37;3.13;;;0.90;;
67839;SDS011;54636;51.684;5.142;2023-04-03T13:50:25;9.50;;;0.93;;
67839;SDS011;54636;51.684;5.142;2023-04-03T13:55:36;0.80;;;0.77;;
67839;SDS011;54636;51.684;5.142;2023-04-03T13:58:24;0.93;;;0.90;;
67839;SDS011;54636;51.684;5.142;2023-04-03T14:03:28;4.32;;;1.25;;
67839;SDS011;54636;51.684;5.142;2023-04-03T14:05:56;1.58;;;1.10;;
67839;SDS011;54636;51.684;5.142;2023-04-03T14:08:21;0.95;;;0.95;;
67839;SDS011;54636;51.684;5.142;2023-04-03T14:10:50;1.08;;;0.60;;
67839;SDS011;54636;51.684;5.142;2023-04-03T14:13:17;1.38;;;1.27;;
67839;SDS011;54636;51.684;5.142;2023-04-03T14:15:44;2.60;;;1.30;;
67839;SDS011;54636;51.684;5.142;2023-04-03T14:18:15;2.47;;;1.00;;
67839;SDS011;54636;51.684;5.142;2023-04-03T14:20:42;4.55;;;1.05;;
67839;SDS011;54636;51.684;5.142;2023-04-03T14:23:09;1.60;;;1.10;;
67839;SDS011;54636;51.684;5.142;2023-04-03T14:25:38;1.20;;;1.20;;
67839;SDS011;54636;51.684;5.142;2023-04-03T14:28:13;1.60;;;1.23;;
67839;SDS011;54636;51.684;5.142;2023-04-03T14:30:40;0.55;;;0.50;;
67839;SDS011;54636;51.684;5.142;2023-04-03T14:33:06;1.25;;;0.93;;
67839;SDS011;54636;51.684;5.142;2023-04-03T14:35:37;1.67;;;1.10;;
67839;SDS011;54636;51.684;5.142;2023-04-03T14:38:05;1.85;;;0.90;;
67839;SDS011;54636;51.684;5.142;2023-04-03T14:40:45;1.00;;;0.90;;
67839;SDS011;54636;51.684;5.142;2023-04-03T14:43:11;1.88;;;1.30;;
67839;SDS011;54636;51.684;5.142;2023-04-03T14:45:37;3.65;;;1.20;;
67839;SDS011;54636;51.684;5.142;2023-04-03T14:48:04;2.70;;;1.10;;
67839;SDS011;54636;51.684;5.142;2023-04-03T14:50:34;4.03;;;1.00;;
67839;SDS011;54636;51.684;5.142;2023-04-03T14:53:00;1.80;;;0.80;;
67839;SDS011;54636;51.684;5.142;2023-04-03T14:55:26;4.10;;;1.00;;
67839;SDS011;54636;51.684;5.142;2023-04-03T14:57:51;2.28;;;1.20;;
67839;SDS011;54636;51.684;5.142;2023-04-03T15:00:19;1.20;;;1.08;;
67839;SDS011;54636;51.684;5.142;2023-04-03T15:02:46;3.03;;;1.10;;
67839;SDS011;54636;51.684;5.142;2023-04-03T15:05:12;1.45;;;0.75;;
67839;SDS011;54636;51.684;5.142;2023-04-03T15:07:49;1.90;;;1.30;;
67839;SDS011;54636;51.684;5.142;2023-04-03T15:12:48;1.40;;;0.95;;
67839;SDS011;54636;51.684;5.142;2023-04-03T15:15:15;2.42;;;0.90;;
67839;SDS011;54636;51.684;5.142;2023-04-03T15:17:42;4.53;;;1.88;;
67839;SDS011;54636;51.684;5.142;2023-04-03T15:20:14;1.80;;;0.75;;
67839;SDS011;54636;51.684;5.142;2023-04-03T15:22:40;1.42;;;0.95;;
67839;SDS011;54636;51.684;5.142;2023-04-03T15:25:06;1.02;;;0.93;;
67839;SDS011;54636;51.684;5.142;2023-04-03T15:27:33;3.20;;;1.17;;
67839;SDS011;54636;51.684;5.142;2023-04-03T15:29:59;1.77;;;1.30;;
67839;SDS011;54636;51.684;5.142;2023-04-03T15:32:24;1.55;;;1.30;;
67839;SDS011;54636;51.684;5.142;2023-04-03T15:34:50;4.57;;;1.67;;
67839;SDS011;54636;51.684;5.142;2023-04-03T15:37:15;1.88;;;1.30;;
67839;SDS011;54636;51.684;5.142;2023-04-03T15:39:41;1.05;;;0.82;;
67839;SDS011;54636;51.684;5.142;2023-04-03T15:42:06;1.60;;;0.80;;
67839;SDS011;54636;51.684;5.142;2023-04-03T15:44:34;1.48;;;1.33;;
67839;SDS011;54636;51.684;5.142;2023-04-03T15:47:00;3.80;;;1.20;;
67839;SDS011;54636;51.684;5.142;2023-04-03T15:49:26;3.00;;;1.13;;
67839;SDS011;54636;51.684;5.142;2023-04-03T15:51:55;1.08;;;0.90;;
67839;SDS011;54636;51.684;5.142;2023-04-03T15:54:20;1.92;;;1.13;;
67839;SDS011;54636;51.684;5.142;2023-04-03T15:56:45;2.85;;;1.40;;
67839;SDS011;54636;51.684;5.142;2023-04-03T15:59:14;1.85;;;0.93;;
67839;SDS011;54636;51.684;5.142;2023-04-03T16:01:40;0.98;;;0.90;;
67839;SDS011;54636;51.684;5.142;2023-04-03T16:04:07;2.38;;;1.30;;
67839;SDS011;54636;51.684;5.142;2023-04-03T16:06:33;1.27;;;1.17;;
67839;SDS011;54636;51.684;5.142;2023-04-03T16:08:59;1.23;;;1.13;;
67839;SDS011;54636;51.684;5.142;2023-04-03T16:11:25;4.00;;;1.25;;
67839;SDS011;54636;51.684;5.142;2023-04-03T16:13:52;0.93;;;0.93;;
67839;SDS011;54636;51.684;5.142;2023-04-03T16:16:19;0.82;;;0.82;;
67839;SDS011;54636;51.684;5.142;2023-04-03T16:18:45;1.52;;;1.40;;
67839;SDS011;54636;51.684;5.142;2023-04-03T16:21:12;2.83;;;1.08;;
67839;SDS011;54636;51.684;5.142;2023-04-03T16:23:40;1.67;;;1.20;;
67839;SDS011;54636;51.684;5.142;2023-04-03T16:26:05;1.05;;;0.80;;
67839;SDS011;54636;51.684;5.142;2023-04-03T16:28:31;2.08;;;1.17;;
67839;SDS011;54636;51.684;5.142;2023-04-03T16:30:56;1.35;;;1.20;;
67839;SDS011;54636;51.684;5.142;2023-04-03T16:33:22;4.80;;;1.45;;
67839;SDS011;54636;51.684;5.142;2023-04-03T16:35:49;6.10;;;1.92;;
67839;SDS011;54636;51.684;5.142;2023-04-03T16:38:16;3.95;;;1.40;;
67839;SDS011;54636;51.684;5.142;2023-04-03T16:40:43;6.65;;;1.45;;